sensor_id;sensor_type;location;lat;lon;timestamp;pressure;altitude;pressure_sealevel;temperature;humidity
49657;BME280;71194;38.900;-77.124;2023-08-06T00:01:30;100158.12;;;31.34;38.59
49657;BME280;71194;38.900;-77.124;2023-08-06T00:03:58;100158.32;;;31.32;39.02
49657;BME280;71194;38.900;-77.124;2023-08-06T00:06:26;100160.26;;;31.07;39.25
49657;BME280;71194;38.900;-77.124;2023-08-06T00:08:53;100159.36;;;31.24;39.46
49657;BME280;71194;38.900;-77.124;2023-08-06T00:11:21;100161.82;;;30.95;39.52
49657;BME280;71194;38.900;-77.124;2023-08-06T00:13:49;100161.90;;;31.07;39.65
49657;BME280;71194;38.900;-77.124;2023-08-06T00:16:17;100164.75;;;30.97;39.91
49657;BME280;71194;38.900;-77.124;2023-08-06T00:18:45;100166.88;;;30.90;40.02
49657;BME280;71194;38.900;-77.124;2023-08-06T00:21:13;100163.63;;;30.86;40.29
49657;BME280;71194;38.900;-77.124;2023-08-06T00:23:41;100164.72;;;31.12;40.57
49657;BME280;71194;38.900;-77.124;2023-08-06T00:26:09;100167.31;;;30.89;41.20
49657;BME280;71194;38.900;-77.124;2023-08-06T00:28:37;100166.30;;;30.90;41.84
49657;BME280;71194;38.900;-77.124;2023-08-06T00:31:05;100166.98;;;30.88;42.39
49657;BME280;71194;38.900;-77.124;2023-08-06T00:33:33;100165.79;;;31.13;42.87
49657;BME280;71194;38.900;-77.124;2023-08-06T00:36:01;100164.79;;;30.82;43.26
49657;BME280;71194;38.900;-77.124;2023-08-06T00:38:28;100166.93;;;30.54;43.69
49657;BME280;71194;38.900;-77.124;2023-08-06T00:40:56;100169.50;;;30.74;44.03
49657;BME280;71194;38.900;-77.124;2023-08-06T00:43:24;100166.95;;;30.95;44.10
49657;BME280;71194;38.900;-77.124;2023-08-06T00:45:52;100169.19;;;30.92;44.36
49657;BME280;71194;38.900;-77.124;2023-08-06T00:48:21;100173.56;;;30.89;44.52
49657;BME280;71194;38.900;-77.124;2023-08-06T00:50:49;100177.82;;;30.57;44.48
49657;BME280;71194;38.900;-77.124;2023-08-06T00:53:17;100181.34;;;30.55;44.61
49657;BME280;71194;38.900;-77.124;2023-08-06T00:55:45;100186.82;;;30.57;44.96
49657;BME280;71194;38.900;-77.124;2023-08-06T00:58:13;100186.56;;;30.53;44.99
49657;BME280;71194;38.900;-77.124;2023-08-06T01:00:42;100189.82;;;30.71;45.49
49657;BME280;71194;38.900;-77.124;2023-08-06T01:03:10;100188.50;;;30.38;45.81
49657;BME280;71194;38.900;-77.124;2023-08-06T01:05:38;100194.34;;;30.64;45.99
49657;BME280;71194;38.900;-77.124;2023-08-06T01:08:17;100197.52;;;30.65;46.27
49657;BME280;71194;38.900;-77.124;2023-08-06T01:10:55;100203.06;;;30.67;46.55
49657;BME280;71194;38.900;-77.124;2023-08-06T01:13:33;100209.05;;;30.39;46.83
49657;BME280;71194;38.900;-77.124;2023-08-06T01:16:06;100211.42;;;30.64;46.73
49657;BME280;71194;38.900;-77.124;2023-08-06T01:18:35;100213.80;;;30.61;47.15
49657;BME280;71194;38.900;-77.124;2023-08-06T01:21:03;100215.42;;;30.64;47.51
49657;BME280;71194;38.900;-77.124;2023-08-06T01:23:31;100215.49;;;30.39;47.84
49657;BME280;71194;38.900;-77.124;2023-08-06T01:26:06;100218.75;;;30.67;48.09
49657;BME280;71194;38.900;-77.124;2023-08-06T01:28:44;100221.71;;;30.67;48.41
49657;BME280;71194;38.900;-77.124;2023-08-06T01:31:18;100222.27;;;30.66;48.73
49657;BME280;71194;38.900;-77.124;2023-08-06T01:33:50;100224.68;;;30.66;48.97
49657;BME280;71194;38.900;-77.124;2023-08-06T01:36:19;100228.58;;;30.67;49.15
49657;BME280;71194;38.900;-77.124;2023-08-06T01:38:48;100230.75;;;30.66;49.54
49657;BME280;71194;38.900;-77.124;2023-08-06T01:41:15;100229.90;;;30.61;49.85
49657;BME280;71194;38.900;-77.124;2023-08-06T01:43:43;100229.56;;;30.54;50.09
49657;BME280;71194;38.900;-77.124;2023-08-06T01:46:11;100233.43;;;30.52;50.37
49657;BME280;71194;38.900;-77.124;2023-08-06T01:48:39;100234.70;;;30.51;50.66
49657;BME280;71194;38.900;-77.124;2023-08-06T01:51:07;100233.41;;;30.44;50.98
49657;BME280;71194;38.900;-77.124;2023-08-06T01:53:34;100234.63;;;30.43;51.11
49657;BME280;71194;38.900;-77.124;2023-08-06T01:56:02;100235.57;;;30.35;51.28
49657;BME280;71194;38.900;-77.124;2023-08-06T01:58:30;100229.08;;;30.50;51.59
49657;BME280;71194;38.900;-77.124;2023-08-06T02:00:58;100227.15;;;30.12;51.98
49657;BME280;71194;38.900;-77.124;2023-08-06T02:03:26;100221.46;;;30.08;52.28
49657;BME280;71194;38.900;-77.124;2023-08-06T02:05:54;100222.12;;;30.02;52.46
49657;BME280;71194;38.900;-77.124;2023-08-06T02:08:21;100222.85;;;30.00;52.69
49657;BME280;71194;38.900;-77.124;2023-08-06T02:10:49;100226.81;;;30.18;52.87
49657;BME280;71194;38.900;-77.124;2023-08-06T02:13:17;100228.99;;;29.89;53.29
49657;BME280;71194;38.900;-77.124;2023-08-06T02:15:45;100233.87;;;30.27;53.52
49657;BME280;71194;38.900;-77.124;2023-08-06T02:18:13;100236.62;;;29.75;53.72
49657;BME280;71194;38.900;-77.124;2023-08-06T02:20:42;100239.46;;;29.75;53.92
49657;BME280;71194;38.900;-77.124;2023-08-06T02:23:09;100237.61;;;30.00;54.14
49657;BME280;71194;38.900;-77.124;2023-08-06T02:25:37;100234.97;;;29.79;54.30
49657;BME280;71194;38.900;-77.124;2023-08-06T02:28:05;100237.26;;;29.77;54.47
49657;BME280;71194;38.900;-77.124;2023-08-06T02:30:33;100244.39;;;29.70;54.48
49657;BME280;71194;38.900;-77.124;2023-08-06T02:33:01;100253.21;;;29.84;54.63
49657;BME280;71194;38.900;-77.124;2023-08-06T02:35:29;100256.41;;;29.57;54.75
49657;BME280;71194;38.900;-77.124;2023-08-06T02:37:57;100256.78;;;29.53;55.03
49657;BME280;71194;38.900;-77.124;2023-08-06T02:40:25;100256.84;;;29.98;55.23
49657;BME280;71194;38.900;-77.124;2023-08-06T02:42:53;100256.79;;;29.94;55.29
49657;BME280;71194;38.900;-77.124;2023-08-06T02:45:21;100254.01;;;29.47;55.46
49657;BME280;71194;38.900;-77.124;2023-08-06T02:47:50;100255.80;;;29.40;55.54
49657;BME280;71194;38.900;-77.124;2023-08-06T02:50:17;100258.66;;;29.57;55.62
49657;BME280;71194;38.900;-77.124;2023-08-06T02:52:45;100256.71;;;29.54;55.74
49657;BME280;71194;38.900;-77.124;2023-08-06T02:55:14;100259.73;;;29.71;55.89
49657;BME280;71194;38.900;-77.124;2023-08-06T02:57:41;100255.04;;;29.44;55.99
49657;BME280;71194;38.900;-77.124;2023-08-06T03:00:10;100255.10;;;29.66;56.05
49657;BME280;71194;38.900;-77.124;2023-08-06T03:02:38;100254.01;;;29.64;56.11
49657;BME280;71194;38.900;-77.124;2023-08-06T03:05:06;100253.22;;;29.69;56.17
49657;BME280;71194;38.900;-77.124;2023-08-06T03:07:34;100252.51;;;29.45;56.05
49657;BME280;71194;38.900;-77.124;2023-08-06T03:10:02;100249.95;;;29.67;55.98
49657;BME280;71194;38.900;-77.124;2023-08-06T03:12:30;100253.59;;;29.72;55.81
49657;BME280;71194;38.900;-77.124;2023-08-06T03:14:58;100257.07;;;29.67;55.79
49657;BME280;71194;38.900;-77.124;2023-08-06T03:17:26;100261.04;;;29.42;55.88
49657;BME280;71194;38.900;-77.124;2023-08-06T03:19:54;100267.86;;;29.38;56.06
49657;BME280;71194;38.900;-77.124;2023-08-06T03:22:22;100275.70;;;29.55;56.32
49657;BME280;71194;38.900;-77.124;2023-08-06T03:24:51;100275.93;;;29.80;56.41
49657;BME280;71194;38.900;-77.124;2023-08-06T03:27:19;100277.70;;;29.81;56.45
49657;BME280;71194;38.900;-77.124;2023-08-06T03:29:49;100275.07;;;29.49;56.53
49657;BME280;71194;38.900;-77.124;2023-08-06T03:32:17;100273.18;;;29.47;56.54
49657;BME280;71194;38.900;-77.124;2023-08-06T03:34:45;100273.32;;;29.46;56.49
49657;BME280;71194;38.900;-77.124;2023-08-06T03:37:13;100279.86;;;29.20;56.56
49657;BME280;71194;38.900;-77.124;2023-08-06T03:39:41;100282.68;;;29.37;56.51
49657;BME280;71194;38.900;-77.124;2023-08-06T03:42:09;100283.60;;;29.38;56.55
49657;BME280;71194;38.900;-77.124;2023-08-06T03:44:37;100288.48;;;29.19;56.87
49657;BME280;71194;38.900;-77.124;2023-08-06T03:47:05;100297.06;;;29.17;56.82
49657;BME280;71194;38.900;-77.124;2023-08-06T03:49:33;100303.05;;;29.15;56.60
49657;BME280;71194;38.900;-77.124;2023-08-06T03:52:00;100308.64;;;29.35;56.66
49657;BME280;71194;38.900;-77.124;2023-08-06T03:54:28;100311.66;;;29.07;56.56
49657;BME280;71194;38.900;-77.124;2023-08-06T03:56:56;100312.85;;;29.05;56.62
49657;BME280;71194;38.900;-77.124;2023-08-06T03:59:24;100318.37;;;29.02;56.65
49657;BME280;71194;38.900;-77.124;2023-08-06T04:01:52;100322.17;;;29.02;56.65
49657;BME280;71194;38.900;-77.124;2023-08-06T04:04:20;100322.54;;;29.01;56.70
49657;BME280;71194;38.900;-77.124;2023-08-06T04:06:48;100321.09;;;29.24;56.68
49657;BME280;71194;38.900;-77.124;2023-08-06T04:09:15;100319.80;;;28.91;56.62
49657;BME280;71194;38.900;-77.124;2023-08-06T04:11:43;100320.81;;;28.90;56.30
49657;BME280;71194;38.900;-77.124;2023-08-06T04:14:11;100318.52;;;29.16;56.38
49657;BME280;71194;38.900;-77.124;2023-08-06T04:16:39;100313.51;;;28.89;56.50
49657;BME280;71194;38.900;-77.124;2023-08-06T04:19:07;100312.67;;;28.83;56.60
49657;BME280;71194;38.900;-77.124;2023-08-06T04:21:35;100310.41;;;28.77;56.78
49657;BME280;71194;38.900;-77.124;2023-08-06T04:24:03;100313.17;;;28.74;56.85
49657;BME280;71194;38.900;-77.124;2023-08-06T04:26:31;100318.96;;;28.97;56.75
49657;BME280;71194;38.900;-77.124;2023-08-06T04:28:59;100320.44;;;28.90;56.91
49657;BME280;71194;38.900;-77.124;2023-08-06T04:31:28;100322.37;;;28.96;56.81
49657;BME280;71194;38.900;-77.124;2023-08-06T04:33:56;100319.32;;;29.04;56.62
49657;BME280;71194;38.900;-77.124;2023-08-06T04:36:24;100318.87;;;28.76;56.63
49657;BME280;71194;38.900;-77.124;2023-08-06T04:38:52;100322.14;;;28.71;56.68
49657;BME280;71194;38.900;-77.124;2023-08-06T04:41:20;100319.66;;;28.68;56.71
49657;BME280;71194;38.900;-77.124;2023-08-06T04:43:48;100315.98;;;28.90;56.92
49657;BME280;71194;38.900;-77.124;2023-08-06T04:46:15;100314.84;;;28.88;57.05
49657;BME280;71194;38.900;-77.124;2023-08-06T04:48:44;100314.80;;;28.60;57.10
49657;BME280;71194;38.900;-77.124;2023-08-06T04:51:11;100311.29;;;28.60;57.18
49657;BME280;71194;38.900;-77.124;2023-08-06T04:53:40;100312.47;;;28.90;57.18
49657;BME280;71194;38.900;-77.124;2023-08-06T04:56:08;100313.50;;;28.66;57.12
49657;BME280;71194;38.900;-77.124;2023-08-06T04:58:36;100314.86;;;28.94;57.16
49657;BME280;71194;38.900;-77.124;2023-08-06T05:01:04;100314.38;;;28.73;57.16
49657;BME280;71194;38.900;-77.124;2023-08-06T05:03:32;100312.83;;;28.72;57.12
49657;BME280;71194;38.900;-77.124;2023-08-06T05:05:59;100314.96;;;28.73;57.23
49657;BME280;71194;38.900;-77.124;2023-08-06T05:08:27;100309.19;;;29.24;57.27
49657;BME280;71194;38.900;-77.124;2023-08-06T05:10:55;100304.29;;;29.05;57.29
49657;BME280;71194;38.900;-77.124;2023-08-06T05:13:23;100306.75;;;28.77;57.31
49657;BME280;71194;38.900;-77.124;2023-08-06T05:15:50;100303.70;;;28.81;57.32
49657;BME280;71194;38.900;-77.124;2023-08-06T05:18:18;100300.32;;;28.77;57.43
49657;BME280;71194;38.900;-77.124;2023-08-06T05:20:46;100296.05;;;29.22;57.65
49657;BME280;71194;38.900;-77.124;2023-08-06T05:23:14;100292.46;;;28.74;57.75
49657;BME280;71194;38.900;-77.124;2023-08-06T05:25:42;100288.39;;;29.20;57.80
49657;BME280;71194;38.900;-77.124;2023-08-06T05:28:10;100287.25;;;28.93;57.87
49657;BME280;71194;38.900;-77.124;2023-08-06T05:30:39;100285.98;;;28.93;57.92
49657;BME280;71194;38.900;-77.124;2023-08-06T05:33:08;100277.43;;;28.65;58.04
49657;BME280;71194;38.900;-77.124;2023-08-06T05:35:35;100277.01;;;28.85;58.23
49657;BME280;71194;38.900;-77.124;2023-08-06T05:38:03;100279.77;;;28.82;58.31
49657;BME280;71194;38.900;-77.124;2023-08-06T05:40:33;100283.12;;;28.57;58.46
49657;BME280;71194;38.900;-77.124;2023-08-06T05:43:01;100281.81;;;28.84;58.45
49657;BME280;71194;38.900;-77.124;2023-08-06T05:45:29;100286.46;;;28.54;58.53
49657;BME280;71194;38.900;-77.124;2023-08-06T05:47:57;100292.03;;;28.53;58.50
49657;BME280;71194;38.900;-77.124;2023-08-06T05:50:24;100295.74;;;28.49;58.59
49657;BME280;71194;38.900;-77.124;2023-08-06T05:52:53;100299.31;;;28.72;58.68
49657;BME280;71194;38.900;-77.124;2023-08-06T05:55:21;100299.89;;;28.68;58.89
49657;BME280;71194;38.900;-77.124;2023-08-06T05:57:49;100295.28;;;28.92;58.95
49657;BME280;71194;38.900;-77.124;2023-08-06T06:00:16;100294.97;;;28.71;58.97
49657;BME280;71194;38.900;-77.124;2023-08-06T06:02:45;100294.24;;;28.45;58.99
49657;BME280;71194;38.900;-77.124;2023-08-06T06:05:13;100294.42;;;28.93;59.05
49657;BME280;71194;38.900;-77.124;2023-08-06T06:07:41;100291.08;;;28.70;59.06
49657;BME280;71194;38.900;-77.124;2023-08-06T06:10:09;100293.84;;;28.90;59.19
49657;BME280;71194;38.900;-77.124;2023-08-06T06:12:39;100295.56;;;28.36;59.37
49657;BME280;71194;38.900;-77.124;2023-08-06T06:15:07;100292.91;;;28.29;59.59
49657;BME280;71194;38.900;-77.124;2023-08-06T06:17:35;100295.99;;;28.32;59.67
49657;BME280;71194;38.900;-77.124;2023-08-06T06:20:03;100298.75;;;28.32;59.73
49657;BME280;71194;38.900;-77.124;2023-08-06T06:22:31;100294.74;;;28.61;59.79
49657;BME280;71194;38.900;-77.124;2023-08-06T06:25:00;100289.92;;;28.28;59.74
49657;BME280;71194;38.900;-77.124;2023-08-06T06:27:28;100296.93;;;28.74;59.81
49657;BME280;71194;38.900;-77.124;2023-08-06T06:29:56;100302.01;;;28.42;59.92
49657;BME280;71194;38.900;-77.124;2023-08-06T06:32:24;100306.33;;;28.62;59.94
49657;BME280;71194;38.900;-77.124;2023-08-06T06:34:53;100306.87;;;28.35;60.03
49657;BME280;71194;38.900;-77.124;2023-08-06T06:37:21;100300.78;;;28.34;60.05
49657;BME280;71194;38.900;-77.124;2023-08-06T06:39:49;100296.75;;;28.29;60.11
49657;BME280;71194;38.900;-77.124;2023-08-06T06:42:17;100291.94;;;28.14;60.42
49657;BME280;71194;38.900;-77.124;2023-08-06T06:44:45;100291.63;;;28.11;60.65
49657;BME280;71194;38.900;-77.124;2023-08-06T06:47:12;100286.09;;;28.10;60.68
49657;BME280;71194;38.900;-77.124;2023-08-06T06:49:40;100286.24;;;28.06;60.67
49657;BME280;71194;38.900;-77.124;2023-08-06T06:52:08;100287.85;;;28.28;60.78
49657;BME280;71194;38.900;-77.124;2023-08-06T06:54:36;100292.10;;;28.04;60.87
49657;BME280;71194;38.900;-77.124;2023-08-06T06:57:04;100287.01;;;28.23;60.97
49657;BME280;71194;38.900;-77.124;2023-08-06T06:59:32;100281.86;;;28.02;61.05
49657;BME280;71194;38.900;-77.124;2023-08-06T07:01:59;100280.18;;;28.21;61.04
49657;BME280;71194;38.900;-77.124;2023-08-06T07:04:27;100277.24;;;27.96;61.09
49657;BME280;71194;38.900;-77.124;2023-08-06T07:06:55;100274.56;;;28.21;61.14
49657;BME280;71194;38.900;-77.124;2023-08-06T07:09:23;100279.65;;;28.15;61.20
49657;BME280;71194;38.900;-77.124;2023-08-06T07:11:51;100281.25;;;28.13;61.39
49657;BME280;71194;38.900;-77.124;2023-08-06T07:14:19;100285.17;;;28.14;61.53
49657;BME280;71194;38.900;-77.124;2023-08-06T07:16:47;100283.22;;;28.15;61.61
49657;BME280;71194;38.900;-77.124;2023-08-06T07:19:15;100283.58;;;28.14;61.68
49657;BME280;71194;38.900;-77.124;2023-08-06T07:21:42;100283.36;;;28.14;61.80
49657;BME280;71194;38.900;-77.124;2023-08-06T07:24:11;100284.20;;;28.13;61.90
49657;BME280;71194;38.900;-77.124;2023-08-06T07:26:38;100283.67;;;28.11;61.87
49657;BME280;71194;38.900;-77.124;2023-08-06T07:29:07;100283.42;;;28.06;61.81
49657;BME280;71194;38.900;-77.124;2023-08-06T07:31:35;100282.28;;;27.97;61.85
49657;BME280;71194;38.900;-77.124;2023-08-06T07:34:02;100275.32;;;27.95;61.99
49657;BME280;71194;38.900;-77.124;2023-08-06T07:36:30;100272.06;;;27.94;62.12
49657;BME280;71194;38.900;-77.124;2023-08-06T07:38:58;100272.01;;;27.96;62.16
49657;BME280;71194;38.900;-77.124;2023-08-06T07:41:26;100273.66;;;27.94;61.75
49657;BME280;71194;38.900;-77.124;2023-08-06T07:43:54;100276.55;;;27.63;61.86
49657;BME280;71194;38.900;-77.124;2023-08-06T07:46:22;100277.23;;;27.82;61.91
49657;BME280;71194;38.900;-77.124;2023-08-06T07:48:49;100280.60;;;27.78;62.02
49657;BME280;71194;38.900;-77.124;2023-08-06T07:51:18;100283.44;;;27.78;61.95
49657;BME280;71194;38.900;-77.124;2023-08-06T07:53:46;100287.94;;;27.75;61.82
49657;BME280;71194;38.900;-77.124;2023-08-06T07:56:13;100291.55;;;27.75;61.76
49657;BME280;71194;38.900;-77.124;2023-08-06T07:58:41;100289.19;;;27.73;61.72
49657;BME280;71194;38.900;-77.124;2023-08-06T08:01:09;100289.38;;;27.76;61.54
49657;BME280;71194;38.900;-77.124;2023-08-06T08:03:37;100288.51;;;27.73;61.50
49657;BME280;71194;38.900;-77.124;2023-08-06T08:06:05;100286.73;;;27.68;61.41
49657;BME280;71194;38.900;-77.124;2023-08-06T08:08:33;100283.74;;;27.64;61.40
49657;BME280;71194;38.900;-77.124;2023-08-06T08:11:00;100279.27;;;27.63;61.40
49657;BME280;71194;38.900;-77.124;2023-08-06T08:13:28;100279.28;;;27.60;61.42
49657;BME280;71194;38.900;-77.124;2023-08-06T08:15:57;100276.24;;;27.59;61.39
49657;BME280;71194;38.900;-77.124;2023-08-06T08:18:26;100273.83;;;27.53;61.41
49657;BME280;71194;38.900;-77.124;2023-08-06T08:20:53;100269.51;;;27.98;61.40
49657;BME280;71194;38.900;-77.124;2023-08-06T08:23:21;100273.41;;;27.95;61.56
49657;BME280;71194;38.900;-77.124;2023-08-06T08:25:49;100276.53;;;27.49;61.52
49657;BME280;71194;38.900;-77.124;2023-08-06T08:28:16;100276.37;;;27.71;61.56
49657;BME280;71194;38.900;-77.124;2023-08-06T08:30:44;100278.43;;;27.42;61.71
49657;BME280;71194;38.900;-77.124;2023-08-06T08:33:12;100276.32;;;27.43;61.83
49657;BME280;71194;38.900;-77.124;2023-08-06T08:35:40;100273.52;;;27.41;61.96
49657;BME280;71194;38.900;-77.124;2023-08-06T08:38:08;100276.49;;;27.65;62.03
49657;BME280;71194;38.900;-77.124;2023-08-06T08:40:40;100278.82;;;27.61;62.09
49657;BME280;71194;38.900;-77.124;2023-08-06T08:43:11;100275.13;;;27.31;62.10
49657;BME280;71194;38.900;-77.124;2023-08-06T08:45:40;100278.28;;;27.55;62.00
49657;BME280;71194;38.900;-77.124;2023-08-06T08:48:11;100279.67;;;27.30;61.93
49657;BME280;71194;38.900;-77.124;2023-08-06T08:50:42;100282.45;;;27.32;61.80
49657;BME280;71194;38.900;-77.124;2023-08-06T08:53:11;100274.35;;;27.34;61.74
49657;BME280;71194;38.900;-77.124;2023-08-06T08:55:41;100274.37;;;27.34;61.93
49657;BME280;71194;38.900;-77.124;2023-08-06T08:58:10;100272.00;;;27.33;62.00
49657;BME280;71194;38.900;-77.124;2023-08-06T09:00:38;100273.62;;;27.31;62.04
49657;BME280;71194;38.900;-77.124;2023-08-06T09:03:07;100266.37;;;27.59;62.02
49657;BME280;71194;38.900;-77.124;2023-08-06T09:05:35;100266.54;;;27.59;62.08
49657;BME280;71194;38.900;-77.124;2023-08-06T09:08:04;100268.65;;;27.30;62.27
49657;BME280;71194;38.900;-77.124;2023-08-06T09:10:33;100275.16;;;27.57;62.23
49657;BME280;71194;38.900;-77.124;2023-08-06T09:13:01;100276.13;;;27.29;62.24
49657;BME280;71194;38.900;-77.124;2023-08-06T09:15:30;100274.59;;;27.74;62.33
49657;BME280;71194;38.900;-77.124;2023-08-06T09:18:00;100271.31;;;27.47;62.43
49657;BME280;71194;38.900;-77.124;2023-08-06T09:20:28;100270.51;;;27.21;62.59
49657;BME280;71194;38.900;-77.124;2023-08-06T09:22:56;100268.88;;;27.67;62.76
49657;BME280;71194;38.900;-77.124;2023-08-06T09:25:24;100268.00;;;27.14;62.82
49657;BME280;71194;38.900;-77.124;2023-08-06T09:27:52;100272.01;;;27.61;62.98
49657;BME280;71194;38.900;-77.124;2023-08-06T09:30:37;100274.30;;;27.10;63.15
49657;BME280;71194;38.900;-77.124;2023-08-06T09:33:08;100274.97;;;27.08;63.26
49657;BME280;71194;38.900;-77.124;2023-08-06T09:35:36;100274.75;;;27.08;63.36
49657;BME280;71194;38.900;-77.124;2023-08-06T09:38:08;100273.89;;;27.32;63.44
49657;BME280;71194;38.900;-77.124;2023-08-06T09:40:38;100282.05;;;27.53;63.59
49657;BME280;71194;38.900;-77.124;2023-08-06T09:43:06;100279.82;;;27.04;63.43
49657;BME280;71194;38.900;-77.124;2023-08-06T09:45:35;100280.38;;;27.50;63.41
49657;BME280;71194;38.900;-77.124;2023-08-06T09:48:04;100284.89;;;27.43;63.56
49657;BME280;71194;38.900;-77.124;2023-08-06T09:50:33;100286.52;;;26.94;63.71
49657;BME280;71194;38.900;-77.124;2023-08-06T09:53:02;100289.54;;;27.19;63.74
49657;BME280;71194;38.900;-77.124;2023-08-06T09:55:30;100294.44;;;26.88;63.84
49657;BME280;71194;38.900;-77.124;2023-08-06T09:58:00;100293.25;;;27.13;63.85
49657;BME280;71194;38.900;-77.124;2023-08-06T10:00:28;100298.42;;;27.12;63.97
49657;BME280;71194;38.900;-77.124;2023-08-06T10:03:00;100299.47;;;27.14;64.05
49657;BME280;71194;38.900;-77.124;2023-08-06T10:05:28;100305.56;;;27.45;64.10
49657;BME280;71194;38.900;-77.124;2023-08-06T10:07:57;100306.21;;;27.51;64.04
49657;BME280;71194;38.900;-77.124;2023-08-06T10:10:28;100305.01;;;27.59;64.02
49657;BME280;71194;38.900;-77.124;2023-08-06T10:12:58;100302.07;;;27.68;63.92
49657;BME280;71194;38.900;-77.124;2023-08-06T10:15:30;100299.57;;;27.55;63.75
49657;BME280;71194;38.900;-77.124;2023-08-06T10:17:59;100299.72;;;27.62;63.62
49657;BME280;71194;38.900;-77.124;2023-08-06T10:20:34;100302.01;;;27.38;63.52
49657;BME280;71194;38.900;-77.124;2023-08-06T10:23:03;100304.33;;;27.42;63.48
49657;BME280;71194;38.900;-77.124;2023-08-06T10:25:33;100308.30;;;27.46;63.43
49657;BME280;71194;38.900;-77.124;2023-08-06T10:28:01;100308.16;;;27.81;63.28
49657;BME280;71194;38.900;-77.124;2023-08-06T10:30:34;100311.71;;;27.36;63.14
49657;BME280;71194;38.900;-77.124;2023-08-06T10:33:08;100313.57;;;27.64;63.02
49657;BME280;71194;38.900;-77.124;2023-08-06T10:35:37;100308.18;;;27.57;63.07
49657;BME280;71194;38.900;-77.124;2023-08-06T10:38:07;100310.83;;;27.51;63.20
49657;BME280;71194;38.900;-77.124;2023-08-06T10:40:37;100316.02;;;28.00;63.31
49657;BME280;71194;38.900;-77.124;2023-08-06T10:43:07;100318.09;;;27.53;63.41
49657;BME280;71194;38.900;-77.124;2023-08-06T10:45:36;100320.78;;;27.57;63.31
49657;BME280;71194;38.900;-77.124;2023-08-06T10:48:05;100316.07;;;27.52;63.33
49657;BME280;71194;38.900;-77.124;2023-08-06T10:50:33;100316.59;;;27.48;63.42
49657;BME280;71194;38.900;-77.124;2023-08-06T10:53:05;100317.15;;;27.94;63.49
49657;BME280;71194;38.900;-77.124;2023-08-06T10:55:32;100318.93;;;27.68;63.67
49657;BME280;71194;38.900;-77.124;2023-08-06T10:58:01;100320.00;;;27.43;63.64
49657;BME280;71194;38.900;-77.124;2023-08-06T11:00:28;100322.34;;;27.94;63.46
49657;BME280;71194;38.900;-77.124;2023-08-06T11:02:57;100323.96;;;27.48;63.53
49657;BME280;71194;38.900;-77.124;2023-08-06T11:05:24;100322.01;;;27.54;63.24
49657;BME280;71194;38.900;-77.124;2023-08-06T11:07:52;100323.28;;;28.15;62.93
49657;BME280;71194;38.900;-77.124;2023-08-06T11:10:20;100325.02;;;27.83;62.62
49657;BME280;71194;38.900;-77.124;2023-08-06T11:12:48;100324.89;;;27.88;62.50
49657;BME280;71194;38.900;-77.124;2023-08-06T11:15:16;100327.02;;;28.04;62.39
49657;BME280;71194;38.900;-77.124;2023-08-06T11:17:44;100331.35;;;28.23;62.24
49657;BME280;71194;38.900;-77.124;2023-08-06T11:20:12;100329.33;;;28.37;62.12
49657;BME280;71194;38.900;-77.124;2023-08-06T11:22:41;100331.64;;;28.51;61.87
49657;BME280;71194;38.900;-77.124;2023-08-06T11:25:09;100327.96;;;28.49;61.57
49657;BME280;71194;38.900;-77.124;2023-08-06T11:27:37;100329.05;;;28.33;61.35
49657;BME280;71194;38.900;-77.124;2023-08-06T11:30:05;100333.73;;;28.89;61.11
49657;BME280;71194;38.900;-77.124;2023-08-06T11:32:33;100330.97;;;28.77;61.00
49657;BME280;71194;38.900;-77.124;2023-08-06T11:35:12;100330.73;;;28.71;60.85
49657;BME280;71194;38.900;-77.124;2023-08-06T11:37:45;100330.89;;;29.30;60.60
49657;BME280;71194;38.900;-77.124;2023-08-06T11:40:15;100321.76;;;29.37;60.16
49657;BME280;71194;38.900;-77.124;2023-08-06T11:42:46;100322.92;;;29.44;59.79
49657;BME280;71194;38.900;-77.124;2023-08-06T11:45:14;100323.27;;;29.59;59.51
49657;BME280;71194;38.900;-77.124;2023-08-06T11:47:42;100325.50;;;29.62;59.28
49657;BME280;71194;38.900;-77.124;2023-08-06T11:50:22;100321.54;;;29.58;59.17
49657;BME280;71194;38.900;-77.124;2023-08-06T11:52:54;100320.87;;;29.51;59.23
49657;BME280;71194;38.900;-77.124;2023-08-06T11:55:24;100319.51;;;29.65;59.23
49657;BME280;71194;38.900;-77.124;2023-08-06T11:57:52;100319.40;;;29.81;59.09
49657;BME280;71194;38.900;-77.124;2023-08-06T12:00:20;100318.79;;;29.72;58.83
49657;BME280;71194;38.900;-77.124;2023-08-06T12:02:50;100319.01;;;29.73;58.77
49657;BME280;71194;38.900;-77.124;2023-08-06T12:05:19;100326.11;;;29.93;58.61
49657;BME280;71194;38.900;-77.124;2023-08-06T12:07:49;100321.51;;;29.57;58.80
49657;BME280;71194;38.900;-77.124;2023-08-06T12:10:18;100315.94;;;29.63;59.02
49657;BME280;71194;38.900;-77.124;2023-08-06T12:12:47;100316.77;;;29.53;59.25
49657;BME280;71194;38.900;-77.124;2023-08-06T12:15:15;100315.29;;;29.54;59.41
49657;BME280;71194;38.900;-77.124;2023-08-06T12:17:43;100318.05;;;29.59;59.40
49657;BME280;71194;38.900;-77.124;2023-08-06T12:20:11;100319.05;;;29.70;59.48
49657;BME280;71194;38.900;-77.124;2023-08-06T12:22:39;100318.03;;;29.62;59.25
49657;BME280;71194;38.900;-77.124;2023-08-06T12:25:08;100316.02;;;29.85;58.97
49657;BME280;71194;38.900;-77.124;2023-08-06T12:27:36;100319.60;;;29.60;59.08
49657;BME280;71194;38.900;-77.124;2023-08-06T12:30:05;100317.79;;;29.91;58.95
49657;BME280;71194;38.900;-77.124;2023-08-06T12:32:34;100317.07;;;29.69;58.47
49657;BME280;71194;38.900;-77.124;2023-08-06T12:35:03;100317.69;;;29.86;57.80
49657;BME280;71194;38.900;-77.124;2023-08-06T12:37:31;100316.37;;;30.25;56.92